Four States, WV (26572)

5:07 PM EST on February 13, 2016 (GMT -0500)
Oak Wood Heights | | Change Station
CLOSE
Current Station
Personal Weather Station
Location: Shinnston, WV
Elevation: 1050 ft
Nearby Weather Stations

Elev 1050 ft 39.38 °N, 80.30 °W | Updated 1 minute ago

Mostly Cloudy
Mostly Cloudy
15.3 °F
Feels Like 15 °F
N
2.7
Wind Variable Wind from West

Today
High -- | Low -- °F
--% Chance of Precip.
Yesterday
High -- | Low -- °F
Precip. -- in
Pressure 30.42 in
Visibility 10.0 miles
Clouds Mostly Cloudy 5500 ft
Windchill 15 °F
Dew Point -5 °F
Humidity 40%
Rainfall 0.00 in
Snow Depth Not available.
7:16 AM 5:55 PM
Waxing Crescent, 34% visible
METAR KCKB 132153Z 31014G19KT 10SM BKN055 M05/M22 A3037 RMK AO2 SLP301 T10501217
Pressure 30.42 in
Visibility 10.0 miles
Clouds Mostly Cloudy 5500 ft
Windchill 15 °F
Dew Point -5 °F
Humidity 40%
Rainfall 0.00 in
Snow Depth Not available.
7:16 AM 5:55 PM
Waxing Crescent, 34% visible
METAR KCKB 132153Z 31014G19KT 10SM BKN055 M05/M22 A3037 RMK AO2 SLP301 T10501217

10-Day Weather Forecast

Almanac

Astronomy

Feb. 13, 2016 Rise Set
Actual Time
Civil Twilight
Nautical Twilight
Astronomical Twilight
Moon
Length of Visible Light
Length of Day
Tomorrow will be .
, % of the Moon is Illuminated

Today's Extremes

State Highs State Lows

Community

WunderPhotos

Upload Photos

1,892,686 photos uploaded!

WunderBlog® & News

Nearby

Air Quality

  Air Quality AQ Index Pollutant
Not available.

Snow Depth

Station Depth Elevation

Earthquake Activity

City Distance Mag. Time & Date
Minimum magnitude displayed is 2.5.

Coastal Water Temperatures

Place Temperature

Stations

Nearby Weather Stations

Station Location Temp. Windchill Dew Point Humidity Wind Precip. Elev Updated Type
                   

Watches & Warnings

Wind Chill Advisory
Issued: 2:50 PM EST Feb. 13, 2016 – National Weather Service

... Wind Chill Advisory remains in effect until 9 am EST Sunday...

* wind chill... as low as 14 below due to temperatures 4 below to
12 above zero... and winds west 5 to 15 mph with gusts up to 25
mph.

* Impacts... frost bite and hypothermia are possible if
precautions are not taken.